sensor_id;sensor_type;location;lat;lon;timestamp;temperature;humidity
26952;DHT22;14507;52.418;13.398;2024-03-29T00:00:00;9.20;99.90
26952;DHT22;14507;52.418;13.398;2024-03-29T00:04:53;9.20;99.90
26952;DHT22;14507;52.418;13.398;2024-03-29T00:07:19;9.20;99.90
26952;DHT22;14507;52.418;13.398;2024-03-29T00:09:44;9.30;99.90
26952;DHT22;14507;52.418;13.398;2024-03-29T00:12:10;9.30;99.90
26952;DHT22;14507;52.418;13.398;2024-03-29T00:14:35;9.40;99.90
26952;DHT22;14507;52.418;13.398;2024-03-29T00:17:01;9.40;99.90
26952;DHT22;14507;52.418;13.398;2024-03-29T00:19:29;9.40;99.90
26952;DHT22;14507;52.418;13.398;2024-03-29T00:21:55;9.40;99.90
26952;DHT22;14507;52.418;13.398;2024-03-29T00:24:20;9.40;99.90
26952;DHT22;14507;52.418;13.398;2024-03-29T00:26:46;9.40;99.90
26952;DHT22;14507;52.418;13.398;2024-03-29T00:29:12;9.40;99.90
26952;DHT22;14507;52.418;13.398;2024-03-29T00:31:37;9.30;99.90
26952;DHT22;14507;52.418;13.398;2024-03-29T00:34:03;9.30;99.90
26952;DHT22;14507;52.418;13.398;2024-03-29T00:36:28;9.20;99.90
26952;DHT22;14507;52.418;13.398;2024-03-29T00:38:54;9.20;99.90
26952;DHT22;14507;52.418;13.398;2024-03-29T00:41:20;9.10;99.90
26952;DHT22;14507;52.418;13.398;2024-03-29T00:43:45;9.00;99.90
26952;DHT22;14507;52.418;13.398;2024-03-29T00:46:11;8.90;99.90
26952;DHT22;14507;52.418;13.398;2024-03-29T00:48:36;8.90;99.90
26952;DHT22;14507;52.418;13.398;2024-03-29T00:51:02;8.90;99.90
26952;DHT22;14507;52.418;13.398;2024-03-29T00:53:28;8.50;99.90
26952;DHT22;14507;52.418;13.398;2024-03-29T00:55:53;8.70;99.90
26952;DHT22;14507;52.418;13.398;2024-03-29T00:58:19;8.50;99.90
26952;DHT22;14507;52.418;13.398;2024-03-29T01:00:45;8.50;99.90
26952;DHT22;14507;52.418;13.398;2024-03-29T01:03:11;8.50;99.90
26952;DHT22;14507;52.418;13.398;2024-03-29T01:05:36;8.40;99.90
26952;DHT22;14507;52.418;13.398;2024-03-29T01:08:04;8.40;99.90
26952;DHT22;14507;52.418;13.398;2024-03-29T01:10:30;8.40;99.90
26952;DHT22;14507;52.418;13.398;2024-03-29T01:12:55;8.20;99.90
26952;DHT22;14507;52.418;13.398;2024-03-29T01:15:21;8.20;99.90
26952;DHT22;14507;52.418;13.398;2024-03-29T01:17:46;8.20;99.90
26952;DHT22;14507;52.418;13.398;2024-03-29T01:20:12;8.10;99.90
26952;DHT22;14507;52.418;13.398;2024-03-29T01:22:38;8.00;99.90
26952;DHT22;14507;52.418;13.398;2024-03-29T01:25:04;8.00;99.90
26952;DHT22;14507;52.418;13.398;2024-03-29T01:27:33;8.00;99.90
26952;DHT22;14507;52.418;13.398;2024-03-29T01:29:59;8.00;99.90
26952;DHT22;14507;52.418;13.398;2024-03-29T01:32:25;8.00;99.90
26952;DHT22;14507;52.418;13.398;2024-03-29T01:37:16;7.90;99.90
26952;DHT22;14507;52.418;13.398;2024-03-29T01:39:42;7.80;99.90
26952;DHT22;14507;52.418;13.398;2024-03-29T01:42:07;8.50;99.90
26952;DHT22;14507;52.418;13.398;2024-03-29T01:44:33;7.80;99.90
26952;DHT22;14507;52.418;13.398;2024-03-29T01:46:58;7.80;99.90
26952;DHT22;14507;52.418;13.398;2024-03-29T01:49:24;7.80;99.90
26952;DHT22;14507;52.418;13.398;2024-03-29T01:51:51;7.70;99.90
26952;DHT22;14507;52.418;13.398;2024-03-29T01:54:17;7.70;99.90
26952;DHT22;14507;52.418;13.398;2024-03-29T01:56:43;7.70;99.90
26952;DHT22;14507;52.418;13.398;2024-03-29T01:59:16;7.70;99.90
26952;DHT22;14507;52.418;13.398;2024-03-29T02:01:42;7.60;99.90
26952;DHT22;14507;52.418;13.398;2024-03-29T02:04:09;7.60;99.90
26952;DHT22;14507;52.418;13.398;2024-03-29T02:06:35;7.60;99.90
26952;DHT22;14507;52.418;13.398;2024-03-29T02:09:01;7.50;99.90
26952;DHT22;14507;52.418;13.398;2024-03-29T02:11:29;7.70;99.90
26952;DHT22;14507;52.418;13.398;2024-03-29T02:13:54;7.40;99.90
26952;DHT22;14507;52.418;13.398;2024-03-29T02:16:20;7.60;99.90
26952;DHT22;14507;52.418;13.398;2024-03-29T02:18:46;7.50;99.90
26952;DHT22;14507;52.418;13.398;2024-03-29T02:21:11;7.40;99.90
26952;DHT22;14507;52.418;13.398;2024-03-29T02:23:40;7.50;99.90
26952;DHT22;14507;52.418;13.398;2024-03-29T02:26:08;7.50;99.90
26952;DHT22;14507;52.418;13.398;2024-03-29T02:28:34;7.60;99.90
26952;DHT22;14507;52.418;13.398;2024-03-29T02:31:00;7.40;99.90
26952;DHT22;14507;52.418;13.398;2024-03-29T02:33:25;7.30;99.90
26952;DHT22;14507;52.418;13.398;2024-03-29T02:38:17;7.30;99.90
26952;DHT22;14507;52.418;13.398;2024-03-29T02:40:42;7.20;99.90
26952;DHT22;14507;52.418;13.398;2024-03-29T02:43:08;7.20;99.90
26952;DHT22;14507;52.418;13.398;2024-03-29T02:45:33;7.20;99.90
26952;DHT22;14507;52.418;13.398;2024-03-29T02:48:00;7.20;99.90
26952;DHT22;14507;52.418;13.398;2024-03-29T02:50:25;7.20;99.90
26952;DHT22;14507;52.418;13.398;2024-03-29T02:52:51;7.10;99.90
26952;DHT22;14507;52.418;13.398;2024-03-29T02:55:17;7.00;99.90
26952;DHT22;14507;52.418;13.398;2024-03-29T02:57:42;7.00;99.90
26952;DHT22;14507;52.418;13.398;2024-03-29T03:00:08;6.90;99.90
26952;DHT22;14507;52.418;13.398;2024-03-29T03:02:38;6.90;99.90
26952;DHT22;14507;52.418;13.398;2024-03-29T03:05:05;6.90;99.90
26952;DHT22;14507;52.418;13.398;2024-03-29T03:07:30;6.90;99.90
26952;DHT22;14507;52.418;13.398;2024-03-29T03:10:15;6.90;99.90
26952;DHT22;14507;52.418;13.398;2024-03-29T03:12:59;6.90;99.90
26952;DHT22;14507;52.418;13.398;2024-03-29T03:15:24;6.80;99.90
26952;DHT22;14507;52.418;13.398;2024-03-29T03:17:50;6.80;99.90
26952;DHT22;14507;52.418;13.398;2024-03-29T03:20:15;6.80;99.90
26952;DHT22;14507;52.418;13.398;2024-03-29T03:22:42;6.70;99.90
26952;DHT22;14507;52.418;13.398;2024-03-29T03:27:34;6.70;99.90
26952;DHT22;14507;52.418;13.398;2024-03-29T03:29:59;6.70;99.90
26952;DHT22;14507;52.418;13.398;2024-03-29T03:32:28;6.60;99.90
26952;DHT22;14507;52.418;13.398;2024-03-29T03:34:54;6.10;99.90
26952;DHT22;14507;52.418;13.398;2024-03-29T03:37:19;6.50;99.90
26952;DHT22;14507;52.418;13.398;2024-03-29T03:39:45;6.50;99.90
26952;DHT22;14507;52.418;13.398;2024-03-29T03:42:10;6.50;99.90
26952;DHT22;14507;52.418;13.398;2024-03-29T03:44:36;6.20;99.90
26952;DHT22;14507;52.418;13.398;2024-03-29T03:47:02;6.50;99.90
26952;DHT22;14507;52.418;13.398;2024-03-29T03:49:27;6.50;99.90
26952;DHT22;14507;52.418;13.398;2024-03-29T03:51:53;6.50;99.90
26952;DHT22;14507;52.418;13.398;2024-03-29T03:54:18;6.40;99.90
26952;DHT22;14507;52.418;13.398;2024-03-29T03:56:44;6.40;99.90
26952;DHT22;14507;52.418;13.398;2024-03-29T03:59:10;6.40;99.90
26952;DHT22;14507;52.418;13.398;2024-03-29T04:01:35;6.30;99.90
26952;DHT22;14507;52.418;13.398;2024-03-29T04:04:01;6.30;99.90
26952;DHT22;14507;52.418;13.398;2024-03-29T04:06:27;6.30;99.90
26952;DHT22;14507;52.418;13.398;2024-03-29T04:08:52;6.30;99.90
26952;DHT22;14507;52.418;13.398;2024-03-29T04:11:18;6.30;99.90
26952;DHT22;14507;52.418;13.398;2024-03-29T04:13:45;6.40;99.90
26952;DHT22;14507;52.418;13.398;2024-03-29T04:18:37;6.30;99.90
26952;DHT22;14507;52.418;13.398;2024-03-29T04:21:03;6.30;99.90
26952;DHT22;14507;52.418;13.398;2024-03-29T04:23:29;6.30;99.90
26952;DHT22;14507;52.418;13.398;2024-03-29T04:25:56;6.30;99.90
26952;DHT22;14507;52.418;13.398;2024-03-29T04:28:22;6.30;99.90
26952;DHT22;14507;52.418;13.398;2024-03-29T04:30:55;6.30;99.90
26952;DHT22;14507;52.418;13.398;2024-03-29T04:33:21;6.20;99.90
26952;DHT22;14507;52.418;13.398;2024-03-29T04:36:05;6.20;99.90
26952;DHT22;14507;52.418;13.398;2024-03-29T04:38:31;6.20;99.90
26952;DHT22;14507;52.418;13.398;2024-03-29T04:40:58;6.30;99.90
26952;DHT22;14507;52.418;13.398;2024-03-29T04:43:28;6.30;99.90
26952;DHT22;14507;52.418;13.398;2024-03-29T04:48:36;6.30;99.90
26952;DHT22;14507;52.418;13.398;2024-03-29T04:51:01;6.30;99.90
26952;DHT22;14507;52.418;13.398;2024-03-29T04:53:27;6.30;99.90
26952;DHT22;14507;52.418;13.398;2024-03-29T04:55:54;6.30;99.90
26952;DHT22;14507;52.418;13.398;2024-03-29T04:58:20;6.30;99.90
26952;DHT22;14507;52.418;13.398;2024-03-29T05:00:46;6.30;99.90
26952;DHT22;14507;52.418;13.398;2024-03-29T05:03:11;6.00;99.90
26952;DHT22;14507;52.418;13.398;2024-03-29T05:05:37;6.30;99.90
26952;DHT22;14507;52.418;13.398;2024-03-29T05:08:03;6.80;99.90
26952;DHT22;14507;52.418;13.398;2024-03-29T05:10:28;6.40;99.90
26952;DHT22;14507;52.418;13.398;2024-03-29T05:12:54;6.40;99.90
26952;DHT22;14507;52.418;13.398;2024-03-29T05:15:19;6.40;99.90
26952;DHT22;14507;52.418;13.398;2024-03-29T05:17:45;6.40;99.90
26952;DHT22;14507;52.418;13.398;2024-03-29T05:20:11;6.50;99.90
26952;DHT22;14507;52.418;13.398;2024-03-29T05:22:36;6.50;99.90
26952;DHT22;14507;52.418;13.398;2024-03-29T05:25:02;6.50;99.90
26952;DHT22;14507;52.418;13.398;2024-03-29T05:27:29;6.50;99.90
26952;DHT22;14507;52.418;13.398;2024-03-29T05:29:55;6.60;99.90
26952;DHT22;14507;52.418;13.398;2024-03-29T05:32:20;6.60;99.90
26952;DHT22;14507;52.418;13.398;2024-03-29T05:34:46;6.50;99.90
26952;DHT22;14507;52.418;13.398;2024-03-29T05:37:12;6.60;99.90
26952;DHT22;14507;52.418;13.398;2024-03-29T05:39:37;6.70;99.90
26952;DHT22;14507;52.418;13.398;2024-03-29T05:42:03;6.70;99.90
26952;DHT22;14507;52.418;13.398;2024-03-29T05:44:29;6.70;99.90
26952;DHT22;14507;52.418;13.398;2024-03-29T05:46:54;6.80;99.90
26952;DHT22;14507;52.418;13.398;2024-03-29T05:49:20;6.80;99.90
26952;DHT22;14507;52.418;13.398;2024-03-29T05:51:46;6.80;99.90
26952;DHT22;14507;52.418;13.398;2024-03-29T05:54:11;6.90;99.90
26952;DHT22;14507;52.418;13.398;2024-03-29T05:56:37;6.80;99.90
26952;DHT22;14507;52.418;13.398;2024-03-29T06:01:29;7.00;99.90
26952;DHT22;14507;52.418;13.398;2024-03-29T06:03:55;7.00;99.90
26952;DHT22;14507;52.418;13.398;2024-03-29T06:06:21;7.10;99.90
26952;DHT22;14507;52.418;13.398;2024-03-29T06:11:15;7.20;99.90
26952;DHT22;14507;52.418;13.398;2024-03-29T06:13:41;7.30;99.90
26952;DHT22;14507;52.418;13.398;2024-03-29T06:16:23;7.40;99.90
26952;DHT22;14507;52.418;13.398;2024-03-29T06:19:09;7.50;99.90
26952;DHT22;14507;52.418;13.398;2024-03-29T06:21:35;7.60;99.90
26952;DHT22;14507;52.418;13.398;2024-03-29T06:24:09;7.60;99.90
26952;DHT22;14507;52.418;13.398;2024-03-29T06:26:38;7.70;99.90
26952;DHT22;14507;52.418;13.398;2024-03-29T06:29:03;7.80;99.90
26952;DHT22;14507;52.418;13.398;2024-03-29T06:31:29;8.00;99.90
26952;DHT22;14507;52.418;13.398;2024-03-29T06:33:55;8.00;99.90
26952;DHT22;14507;52.418;13.398;2024-03-29T06:36:21;8.20;99.90
26952;DHT22;14507;52.418;13.398;2024-03-29T06:38:46;8.30;99.90
26952;DHT22;14507;52.418;13.398;2024-03-29T06:41:12;8.40;99.90
26952;DHT22;14507;52.418;13.398;2024-03-29T06:43:41;8.40;99.90
26952;DHT22;14507;52.418;13.398;2024-03-29T06:46:07;8.50;99.90
26952;DHT22;14507;52.418;13.398;2024-03-29T06:48:32;8.60;99.90
26952;DHT22;14507;52.418;13.398;2024-03-29T06:50:58;8.60;99.90
26952;DHT22;14507;52.418;13.398;2024-03-29T06:53:25;8.70;99.90
26952;DHT22;14507;52.418;13.398;2024-03-29T06:55:51;8.90;99.90
26952;DHT22;14507;52.418;13.398;2024-03-29T06:58:16;9.00;99.90
26952;DHT22;14507;52.418;13.398;2024-03-29T07:00:46;9.10;99.90
26952;DHT22;14507;52.418;13.398;2024-03-29T07:03:11;9.30;99.90
26952;DHT22;14507;52.418;13.398;2024-03-29T07:05:37;9.50;99.90
26952;DHT22;14507;52.418;13.398;2024-03-29T07:08:03;9.70;99.90
26952;DHT22;14507;52.418;13.398;2024-03-29T07:25:09;9.70;99.90
26952;DHT22;14507;52.418;13.398;2024-03-29T07:27:34;9.60;99.90
26952;DHT22;14507;52.418;13.398;2024-03-29T07:30:02;9.60;99.90
26952;DHT22;14507;52.418;13.398;2024-03-29T07:34:55;9.60;99.90
26952;DHT22;14507;52.418;13.398;2024-03-29T07:37:24;9.60;99.90
26952;DHT22;14507;52.418;13.398;2024-03-29T07:39:49;9.60;99.90
26952;DHT22;14507;52.418;13.398;2024-03-29T07:42:15;9.60;99.90
26952;DHT22;14507;52.418;13.398;2024-03-29T07:44:41;9.80;99.90
26952;DHT22;14507;52.418;13.398;2024-03-29T07:47:07;9.60;99.90
26952;DHT22;14507;52.418;13.398;2024-03-29T07:56:53;9.80;99.90
26952;DHT22;14507;52.418;13.398;2024-03-29T07:59:19;9.90;99.90
26952;DHT22;14507;52.418;13.398;2024-03-29T08:01:45;9.90;99.90
26952;DHT22;14507;52.418;13.398;2024-03-29T08:04:11;10.00;99.90
26952;DHT22;14507;52.418;13.398;2024-03-29T08:06:37;10.00;99.90
26952;DHT22;14507;52.418;13.398;2024-03-29T08:18:47;10.10;99.90
26952;DHT22;14507;52.418;13.398;2024-03-29T08:21:13;10.10;99.90
26952;DHT22;14507;52.418;13.398;2024-03-29T08:23:42;10.10;99.90
26952;DHT22;14507;52.418;13.398;2024-03-29T08:26:13;10.20;99.90
26952;DHT22;14507;52.418;13.398;2024-03-29T08:28:39;10.20;99.90
26952;DHT22;14507;52.418;13.398;2024-03-29T08:31:06;10.20;99.90
26952;DHT22;14507;52.418;13.398;2024-03-29T08:33:34;10.30;99.90
26952;DHT22;14507;52.418;13.398;2024-03-29T08:36:05;10.30;99.90
26952;DHT22;14507;52.418;13.398;2024-03-29T08:38:31;10.40;99.90
26952;DHT22;14507;52.418;13.398;2024-03-29T08:40:57;10.40;99.90
26952;DHT22;14507;52.418;13.398;2024-03-29T08:43:23;10.50;99.90
26952;DHT22;14507;52.418;13.398;2024-03-29T08:45:49;10.60;99.90
26952;DHT22;14507;52.418;13.398;2024-03-29T08:48:14;10.70;99.90
26952;DHT22;14507;52.418;13.398;2024-03-29T08:50:40;10.80;99.90
26952;DHT22;14507;52.418;13.398;2024-03-29T08:55:33;11.00;99.90
26952;DHT22;14507;52.418;13.398;2024-03-29T08:58:00;11.10;99.90
26952;DHT22;14507;52.418;13.398;2024-03-29T09:00:26;11.10;99.90
26952;DHT22;14507;52.418;13.398;2024-03-29T09:02:52;11.40;99.90
26952;DHT22;14507;52.418;13.398;2024-03-29T09:05:18;11.20;99.90
26952;DHT22;14507;52.418;13.398;2024-03-29T09:07:44;11.30;99.90
26952;DHT22;14507;52.418;13.398;2024-03-29T09:10:09;11.40;99.90
26952;DHT22;14507;52.418;13.398;2024-03-29T09:12:35;11.50;99.90
26952;DHT22;14507;52.418;13.398;2024-03-29T09:15:00;11.60;99.90
26952;DHT22;14507;52.418;13.398;2024-03-29T09:19:53;11.80;99.90
26952;DHT22;14507;52.418;13.398;2024-03-29T09:22:19;11.80;99.90
26952;DHT22;14507;52.418;13.398;2024-03-29T09:27:11;11.90;99.90
26952;DHT22;14507;52.418;13.398;2024-03-29T09:29:36;12.00;99.90
26952;DHT22;14507;52.418;13.398;2024-03-29T09:32:02;12.20;99.90
26952;DHT22;14507;52.418;13.398;2024-03-29T09:34:28;12.20;99.90
26952;DHT22;14507;52.418;13.398;2024-03-29T09:41:46;12.30;99.90
26952;DHT22;14507;52.418;13.398;2024-03-29T09:44:12;12.40;99.90
26952;DHT22;14507;52.418;13.398;2024-03-29T09:46:38;12.50;99.60
26952;DHT22;14507;52.418;13.398;2024-03-29T09:49:06;12.50;99.30
26952;DHT22;14507;52.418;13.398;2024-03-29T09:51:32;12.50;99.10
26952;DHT22;14507;52.418;13.398;2024-03-29T09:53:59;12.50;99.20
26952;DHT22;14507;52.418;13.398;2024-03-29T09:56:26;12.60;98.80
26952;DHT22;14507;52.418;13.398;2024-03-29T09:58:52;12.60;99.90
26952;DHT22;14507;52.418;13.398;2024-03-29T10:01:19;12.60;98.70
26952;DHT22;14507;52.418;13.398;2024-03-29T10:03:49;12.70;98.40
26952;DHT22;14507;52.418;13.398;2024-03-29T10:06:18;12.70;98.70
26952;DHT22;14507;52.418;13.398;2024-03-29T10:08:45;12.70;98.80
26952;DHT22;14507;52.418;13.398;2024-03-29T10:11:11;12.70;98.80
26952;DHT22;14507;52.418;13.398;2024-03-29T10:13:36;12.70;99.00
26952;DHT22;14507;52.418;13.398;2024-03-29T10:16:03;12.70;98.80
26952;DHT22;14507;52.418;13.398;2024-03-29T10:18:29;12.70;99.90
26952;DHT22;14507;52.418;13.398;2024-03-29T10:21:05;12.60;99.90
26952;DHT22;14507;52.418;13.398;2024-03-29T10:23:33;12.60;99.90
26952;DHT22;14507;52.418;13.398;2024-03-29T10:26:01;12.50;99.90
26952;DHT22;14507;52.418;13.398;2024-03-29T10:28:36;12.50;99.90
26952;DHT22;14507;52.418;13.398;2024-03-29T10:31:03;12.40;99.90
26952;DHT22;14507;52.418;13.398;2024-03-29T10:33:30;12.40;99.90
26952;DHT22;14507;52.418;13.398;2024-03-29T10:35:56;12.30;99.90
26952;DHT22;14507;52.418;13.398;2024-03-29T10:38:24;12.30;99.90
26952;DHT22;14507;52.418;13.398;2024-03-29T10:40:52;12.20;99.90
26952;DHT22;14507;52.418;13.398;2024-03-29T10:43:19;12.20;99.90
26952;DHT22;14507;52.418;13.398;2024-03-29T10:45:49;12.10;99.90
26952;DHT22;14507;52.418;13.398;2024-03-29T10:48:21;12.10;99.90
26952;DHT22;14507;52.418;13.398;2024-03-29T10:50:48;12.10;99.90
26952;DHT22;14507;52.418;13.398;2024-03-29T10:53:16;12.10;99.90
26952;DHT22;14507;52.418;13.398;2024-03-29T10:55:42;12.20;99.90
26952;DHT22;14507;52.418;13.398;2024-03-29T10:58:10;12.20;99.90
26952;DHT22;14507;52.418;13.398;2024-03-29T11:00:45;12.20;99.90
26952;DHT22;14507;52.418;13.398;2024-03-29T11:06:02;12.60;99.90
26952;DHT22;14507;52.418;13.398;2024-03-29T11:08:35;12.90;99.90
26952;DHT22;14507;52.418;13.398;2024-03-29T11:11:04;13.10;99.90
26952;DHT22;14507;52.418;13.398;2024-03-29T11:13:47;13.30;99.90
26952;DHT22;14507;52.418;13.398;2024-03-29T11:16:14;13.50;99.90
26952;DHT22;14507;52.418;13.398;2024-03-29T11:18:44;13.50;99.90
26952;DHT22;14507;52.418;13.398;2024-03-29T11:21:14;13.80;99.90
26952;DHT22;14507;52.418;13.398;2024-03-29T11:23:48;13.90;99.90
26952;DHT22;14507;52.418;13.398;2024-03-29T11:26:14;13.90;99.90
26952;DHT22;14507;52.418;13.398;2024-03-29T11:28:40;13.90;99.90
26952;DHT22;14507;52.418;13.398;2024-03-29T11:31:09;14.00;99.90
26952;DHT22;14507;52.418;13.398;2024-03-29T11:36:13;14.00;99.90
26952;DHT22;14507;52.418;13.398;2024-03-29T11:38:40;13.90;99.90
26952;DHT22;14507;52.418;13.398;2024-03-29T11:41:14;13.80;99.90
26952;DHT22;14507;52.418;13.398;2024-03-29T11:43:40;13.90;99.90
26952;DHT22;14507;52.418;13.398;2024-03-29T11:46:14;13.80;99.90
26952;DHT22;14507;52.418;13.398;2024-03-29T11:48:41;13.70;99.90
26952;DHT22;14507;52.418;13.398;2024-03-29T11:51:09;13.60;99.90
26952;DHT22;14507;52.418;13.398;2024-03-29T11:53:36;13.60;99.90
26952;DHT22;14507;52.418;13.398;2024-03-29T11:56:03;13.50;99.90
26952;DHT22;14507;52.418;13.398;2024-03-29T11:58:31;13.50;99.90
26952;DHT22;14507;52.418;13.398;2024-03-29T12:00:58;13.50;99.90
26952;DHT22;14507;52.418;13.398;2024-03-29T12:03:26;13.40;99.90
26952;DHT22;14507;52.418;13.398;2024-03-29T12:05:53;13.40;99.90
26952;DHT22;14507;52.418;13.398;2024-03-29T12:08:21;13.30;99.90
26952;DHT22;14507;52.418;13.398;2024-03-29T12:10:47;13.40;99.90
26952;DHT22;14507;52.418;13.398;2024-03-29T12:13:16;13.40;99.90
26952;DHT22;14507;52.418;13.398;2024-03-29T12:15:42;13.50;99.90
26952;DHT22;14507;52.418;13.398;2024-03-29T12:18:08;13.50;99.90
26952;DHT22;14507;52.418;13.398;2024-03-29T12:20:34;13.50;99.90
26952;DHT22;14507;52.418;13.398;2024-03-29T12:23:05;13.50;99.90
26952;DHT22;14507;52.418;13.398;2024-03-29T12:25:33;13.60;99.90
26952;DHT22;14507;52.418;13.398;2024-03-29T12:27:59;13.70;99.90
26952;DHT22;14507;52.418;13.398;2024-03-29T12:30:25;13.70;99.90
26952;DHT22;14507;52.418;13.398;2024-03-29T12:33:08;13.80;99.90
26952;DHT22;14507;52.418;13.398;2024-03-29T12:35:38;13.90;99.90
26952;DHT22;14507;52.418;13.398;2024-03-29T12:38:04;14.00;99.90
26952;DHT22;14507;52.418;13.398;2024-03-29T12:40:32;14.20;99.50
26952;DHT22;14507;52.418;13.398;2024-03-29T12:43:03;14.20;99.10
26952;DHT22;14507;52.418;13.398;2024-03-29T12:45:34;14.40;99.10
26952;DHT22;14507;52.418;13.398;2024-03-29T12:48:00;14.50;98.70
26952;DHT22;14507;52.418;13.398;2024-03-29T12:50:27;14.70;98.60
26952;DHT22;14507;52.418;13.398;2024-03-29T12:52:56;14.90;98.40
26952;DHT22;14507;52.418;13.398;2024-03-29T12:55:23;15.00;98.20
26952;DHT22;14507;52.418;13.398;2024-03-29T12:57:50;15.10;97.60
26952;DHT22;14507;52.418;13.398;2024-03-29T13:00:19;15.20;97.60
26952;DHT22;14507;52.418;13.398;2024-03-29T13:02:45;15.20;97.50
26952;DHT22;14507;52.418;13.398;2024-03-29T13:05:10;15.30;97.10
26952;DHT22;14507;52.418;13.398;2024-03-29T13:07:36;15.40;96.20
26952;DHT22;14507;52.418;13.398;2024-03-29T13:10:02;15.40;95.20
26952;DHT22;14507;52.418;13.398;2024-03-29T13:12:31;15.40;94.50
26952;DHT22;14507;52.418;13.398;2024-03-29T13:15:02;15.40;94.70
26952;DHT22;14507;52.418;13.398;2024-03-29T13:17:29;15.50;95.30
26952;DHT22;14507;52.418;13.398;2024-03-29T13:19:55;15.40;95.50
26952;DHT22;14507;52.418;13.398;2024-03-29T13:22:20;15.40;94.90
26952;DHT22;14507;52.418;13.398;2024-03-29T13:24:46;15.40;93.80
26952;DHT22;14507;52.418;13.398;2024-03-29T13:27:12;15.40;93.40
26952;DHT22;14507;52.418;13.398;2024-03-29T13:29:38;15.30;93.90
26952;DHT22;14507;52.418;13.398;2024-03-29T13:32:04;15.20;93.30
26952;DHT22;14507;52.418;13.398;2024-03-29T13:34:30;15.20;93.20
26952;DHT22;14507;52.418;13.398;2024-03-29T13:36:56;15.30;93.20
26952;DHT22;14507;52.418;13.398;2024-03-29T13:39:21;15.30;92.80
26952;DHT22;14507;52.418;13.398;2024-03-29T13:41:49;16.10;92.80
26952;DHT22;14507;52.418;13.398;2024-03-29T13:44:15;15.50;92.40
26952;DHT22;14507;52.418;13.398;2024-03-29T13:46:43;15.50;92.50
26952;DHT22;14507;52.418;13.398;2024-03-29T13:49:09;15.60;92.10
26952;DHT22;14507;52.418;13.398;2024-03-29T13:51:34;15.60;92.10
26952;DHT22;14507;52.418;13.398;2024-03-29T13:54:00;15.70;91.50
26952;DHT22;14507;52.418;13.398;2024-03-29T13:56:26;15.70;91.90
26952;DHT22;14507;52.418;13.398;2024-03-29T13:58:51;15.70;91.50
26952;DHT22;14507;52.418;13.398;2024-03-29T14:01:17;15.70;91.40
26952;DHT22;14507;52.418;13.398;2024-03-29T14:03:43;15.80;92.00
26952;DHT22;14507;52.418;13.398;2024-03-29T14:06:10;15.90;91.40
26952;DHT22;14507;52.418;13.398;2024-03-29T14:08:36;16.00;91.50
26952;DHT22;14507;52.418;13.398;2024-03-29T14:11:01;16.00;91.60
26952;DHT22;14507;52.418;13.398;2024-03-29T14:13:27;16.20;92.00
26952;DHT22;14507;52.418;13.398;2024-03-29T14:15:54;16.30;91.70
26952;DHT22;14507;52.418;13.398;2024-03-29T14:18:20;16.40;92.40
26952;DHT22;14507;52.418;13.398;2024-03-29T14:20:46;16.40;91.90
26952;DHT22;14507;52.418;13.398;2024-03-29T14:23:11;16.50;92.00
26952;DHT22;14507;52.418;13.398;2024-03-29T14:28:06;16.50;91.60
26952;DHT22;14507;52.418;13.398;2024-03-29T14:30:32;16.50;94.80
26952;DHT22;14507;52.418;13.398;2024-03-29T14:32:58;16.50;92.10
26952;DHT22;14507;52.418;13.398;2024-03-29T14:35:28;16.40;92.20
26952;DHT22;14507;52.418;13.398;2024-03-29T14:37:56;16.30;92.30
26952;DHT22;14507;52.418;13.398;2024-03-29T14:40:22;16.30;92.20
26952;DHT22;14507;52.418;13.398;2024-03-29T14:42:48;16.40;92.70
26952;DHT22;14507;52.418;13.398;2024-03-29T14:45:13;16.50;92.80
26952;DHT22;14507;52.418;13.398;2024-03-29T14:47:39;16.60;92.60
26952;DHT22;14507;52.418;13.398;2024-03-29T14:50:05;16.60;92.30
26952;DHT22;14507;52.418;13.398;2024-03-29T14:52:39;16.60;92.70
26952;DHT22;14507;52.418;13.398;2024-03-29T14:55:05;16.50;92.60
26952;DHT22;14507;52.418;13.398;2024-03-29T14:57:31;16.40;93.10
26952;DHT22;14507;52.418;13.398;2024-03-29T14:59:57;16.40;93.20
26952;DHT22;14507;52.418;13.398;2024-03-29T15:02:23;16.20;95.90
26952;DHT22;14507;52.418;13.398;2024-03-29T15:04:48;16.20;96.80
26952;DHT22;14507;52.418;13.398;2024-03-29T15:07:14;16.20;94.00
26952;DHT22;14507;52.418;13.398;2024-03-29T15:09:40;16.50;96.60
26952;DHT22;14507;52.418;13.398;2024-03-29T15:12:05;16.00;93.90
26952;DHT22;14507;52.418;13.398;2024-03-29T15:14:31;16.00;94.20
26952;DHT22;14507;52.418;13.398;2024-03-29T15:16:57;15.90;94.70
26952;DHT22;14507;52.418;13.398;2024-03-29T15:19:23;15.90;95.20
26952;DHT22;14507;52.418;13.398;2024-03-29T15:21:49;15.90;95.00
26952;DHT22;14507;52.418;13.398;2024-03-29T15:24:15;15.90;95.00
26952;DHT22;14507;52.418;13.398;2024-03-29T15:26:41;15.80;95.20
26952;DHT22;14507;52.418;13.398;2024-03-29T15:29:06;15.80;95.50
26952;DHT22;14507;52.418;13.398;2024-03-29T15:31:41;15.70;95.60
26952;DHT22;14507;52.418;13.398;2024-03-29T15:34:07;15.70;96.00
26952;DHT22;14507;52.418;13.398;2024-03-29T15:36:36;15.60;96.00
26952;DHT22;14507;52.418;13.398;2024-03-29T15:39:04;15.60;96.30
26952;DHT22;14507;52.418;13.398;2024-03-29T15:41:40;15.60;96.70
26952;DHT22;14507;52.418;13.398;2024-03-29T15:44:06;15.60;96.70
26952;DHT22;14507;52.418;13.398;2024-03-29T15:46:35;15.60;97.00
26952;DHT22;14507;52.418;13.398;2024-03-29T15:49:01;15.50;97.20
26952;DHT22;14507;52.418;13.398;2024-03-29T15:51:26;15.50;97.30
26952;DHT22;14507;52.418;13.398;2024-03-29T15:53:53;15.50;97.30
26952;DHT22;14507;52.418;13.398;2024-03-29T15:56:21;15.50;97.60
26952;DHT22;14507;52.418;13.398;2024-03-29T15:58:47;15.40;97.60
26952;DHT22;14507;52.418;13.398;2024-03-29T16:01:14;15.40;98.30
26952;DHT22;14507;52.418;13.398;2024-03-29T16:03:40;15.40;98.00
26952;DHT22;14507;52.418;13.398;2024-03-29T16:06:08;15.40;98.40
26952;DHT22;14507;52.418;13.398;2024-03-29T16:08:36;15.30;98.50
26952;DHT22;14507;52.418;13.398;2024-03-29T16:11:04;15.30;98.60
26952;DHT22;14507;52.418;13.398;2024-03-29T16:13:31;15.20;98.70
26952;DHT22;14507;52.418;13.398;2024-03-29T16:16:01;15.20;98.90
26952;DHT22;14507;52.418;13.398;2024-03-29T16:18:28;15.20;99.20
26952;DHT22;14507;52.418;13.398;2024-03-29T16:20:55;15.10;99.30
26952;DHT22;14507;52.418;13.398;2024-03-29T16:23:20;15.10;99.50
26952;DHT22;14507;52.418;13.398;2024-03-29T16:25:46;15.00;99.90
26952;DHT22;14507;52.418;13.398;2024-03-29T16:28:13;15.00;99.90
26952;DHT22;14507;52.418;13.398;2024-03-29T16:30:46;15.00;99.90
26952;DHT22;14507;52.418;13.398;2024-03-29T16:33:13;14.90;99.90